地図

経路データ

SID SEASON NUMBER BASIN SUBBASIN NAME ISO_TIME NATURE LAT LON WMO_WIND WMO_PRES WMO_AGENCY TRACK_TYPE DIST2LAND LANDFALL IFLAG USA_AGENCY USA_ATCF_ID USA_LAT USA_LON USA_RECORD USA_STATUS USA_WIND USA_PRES USA_SSHS USA_R34_NE USA_R34_SE USA_R34_SW USA_R34_NW USA_R50_NE USA_R50_SE USA_R50_SW USA_R50_NW USA_R64_NE USA_R64_SE USA_R64_SW USA_R64_NW USA_POCI USA_ROCI USA_RMW USA_EYE TOKYO_LAT TOKYO_LON TOKYO_GRADE TOKYO_WIND TOKYO_PRES TOKYO_R50_DIR TOKYO_R50_LONG TOKYO_R50_SHORT TOKYO_R30_DIR TOKYO_R30_LONG TOKYO_R30_SHORT TOKYO_LAND CMA_LAT CMA_LON CMA_CAT CMA_WIND CMA_PRES HKO_LAT HKO_LON HKO_CAT HKO_WIND HKO_PRES NEWDELHI_LAT NEWDELHI_LON NEWDELHI_GRADE NEWDELHI_WIND NEWDELHI_PRES NEWDELHI_CI NEWDELHI_DP NEWDELHI_POCI REUNION_LAT REUNION_LON REUNION_TYPE REUNION_WIND REUNION_PRES REUNION_TNUM REUNION_CI REUNION_RMW REUNION_R34_NE REUNION_R34_SE REUNION_R34_SW REUNION_R34_NW REUNION_R50_NE REUNION_R50_SE REUNION_R50_SW REUNION_R50_NW REUNION_R64_NE REUNION_R64_SE REUNION_R64_SW REUNION_R64_NW BOM_LAT BOM_LON BOM_TYPE BOM_WIND BOM_PRES BOM_TNUM BOM_CI BOM_RMW BOM_R34_NE BOM_R34_SE BOM_R34_SW BOM_R34_NW BOM_R50_NE BOM_R50_SE BOM_R50_SW BOM_R50_NW BOM_R64_NE BOM_R64_SE BOM_R64_SW BOM_R64_NW BOM_ROCI BOM_POCI BOM_EYE BOM_POS_METHOD BOM_PRES_METHOD NADI_LAT NADI_LON NADI_CAT NADI_WIND NADI_PRES WELLINGTON_LAT WELLINGTON_LON WELLINGTON_WIND WELLINGTON_PRES DS824_LAT DS824_LON DS824_STAGE DS824_WIND DS824_PRES TD9636_LAT TD9636_LON TD9636_STAGE TD9636_WIND TD9636_PRES TD9635_LAT TD9635_LON TD9635_WIND TD9635_PRES TD9635_ROCI NEUMANN_LAT NEUMANN_LON NEUMANN_CLASS NEUMANN_WIND NEUMANN_PRES MLC_LAT MLC_LON MLC_CLASS MLC_WIND MLC_PRES USA_GUST BOM_GUST BOM_GUST_PER REUNION_GUST REUNION_GUST_PER USA_SEAHGT USA_SEARAD_NE USA_SEARAD_SE USA_SEARAD_SW USA_SEARAD_NW STORM_SPEED STORM_DIR
1939232N11150 1939 53 WP MM NOT_NAMED 1939-08-19 21:00:00 NR 10.9000 150.100 main 1486 1478 __________O___ -1 10.9000 150.100 2 13 277
1939232N11150 1939 53 WP MM NOT_NAMED 1939-08-20 00:00:00 NR 10.9856 149.420 main 1484 1478 __________P___ -1 10.9856 149.420 2 13 278
1939232N11150 1939 53 WP MM NOT_NAMED 1939-08-20 03:00:00 NR 11.0863 148.752 main 1487 1483 __________P___ -1 11.0863 148.752 2 13 280
1939232N11150 1939 53 WP MM NOT_NAMED 1939-08-20 06:00:00 NR 11.2189 148.108 main 1492 1491 __________P___ -1 11.2189 148.108 2 13 284
1939232N11150 1939 53 WP MM NOT_NAMED 1939-08-20 09:00:00 NR 11.4000 147.500 main 1512 1512 __________O___ -1 11.4000 147.500 2 12 290
1939232N11150 1939 53 WP MM NOT_NAMED 1939-08-20 12:00:00 NR 11.6396 146.939 main 1535 1535 __________P___ -1 11.6396 146.939 2 12 296
1939232N11150 1939 53 WP MM NOT_NAMED 1939-08-20 15:00:00 NR 11.9196 146.431 main 1568 1568 __________P___ -1 11.9196 146.431 2 11 302
1939232N11150 1939 53 WP MM NOT_NAMED 1939-08-20 18:00:00 NR 12.2148 145.982 main 1603 1603 __________P___ -1 12.2148 145.982 2 10 306
1939232N11150 1939 53 WP MM NOT_NAMED 1939-08-20 21:00:00 NR 12.5000 145.600 main 1639 1639 __________O___ -1 12.5000 145.600 2 8 314
1939232N11150 1939 53 WP MM NOT_NAMED 1939-08-21 00:00:00 NR 12.7494 145.414 main 1663 1663 __________P___ -1 12.7494 145.414 2 6 326
1939232N11150 1939 53 WP MM NOT_NAMED 1939-08-21 03:00:00 NR 12.9840 145.271 main 1697 1697 __________P___ -1 12.9840 145.271 2 6 321
1939232N11150 1939 53 WP MM NOT_NAMED 1939-08-21 06:00:00 NR 13.2017 145.042 main 1723 1723 __________P___ -1 13.2017 145.042 2 8 302
1939232N11150 1939 53 WP MM NOT_NAMED 1939-08-21 09:00:00 NR 13.4000 144.600 main 1750 1750 __________O___ -1 13.4000 144.600 2 14 287
1939232N11150 1939 53 WP MM NOT_NAMED 1939-08-21 12:00:00 NR 13.5918 143.700 main 1787 1784 __________P___ -1 13.5918 143.700 2 20 280
1939232N11150 1939 53 WP MM NOT_NAMED 1939-08-21 15:00:00 NR 13.7585 142.591 main 1792 1735 __________P___ -1 13.7585 142.591 2 22 278
1939232N11150 1939 53 WP MM NOT_NAMED 1939-08-21 18:00:00 NR 13.8951 141.437 main 1725 1620 __________P___ -1 13.8951 141.437 2 21 276
1939232N11150 1939 53 WP MM NOT_NAMED 1939-08-21 21:00:00 NR 14.0000 140.400 main 1620 1559 __________O___ -1 14.0000 140.400 2 16 276
1939232N11150 1939 53 WP MM NOT_NAMED 1939-08-22 00:00:00 NR 14.0671 139.754 main 1559 1506 __________P___ -1 14.0671 139.754 2 11 276
1939232N11150 1939 53 WP MM NOT_NAMED 1939-08-22 03:00:00 NR 14.1104 139.239 main 1495 1453 __________P___ -1 14.1104 139.239 2 10 275
1939232N11150 1939 53 WP MM NOT_NAMED 1939-08-22 06:00:00 NR 14.1487 138.754 main 1453 1393 __________P___ -1 14.1487 138.754 2 10 275
1939232N11150 1939 53 WP MM NOT_NAMED 1939-08-22 09:00:00 NR 14.2000 138.200 main 1393 1309 __________O___ -1 14.2000 138.200 2 14 276
1939232N11150 1939 53 WP MM NOT_NAMED 1939-08-22 12:00:00 NR 14.2838 137.343 main 1299 1216 __________P___ -1 14.2838 137.343 2 17 276
1939232N11150 1939 53 WP MM NOT_NAMED 1939-08-22 15:00:00 NR 14.3808 136.418 main 1205 1123 __________P___ -1 14.3808 136.418 2 18 277
1939232N11150 1939 53 WP MM NOT_NAMED 1939-08-22 18:00:00 NR 14.4870 135.534 main 1112 1041 __________P___ -1 14.4870 135.534 2 16 278
1939232N11150 1939 53 WP MM NOT_NAMED 1939-08-22 21:00:00 NR 14.6000 134.800 main 1041 1002 __________O___ -1 14.6000 134.800 2 12 281
1939232N11150 1939 53 WP MM NOT_NAMED 1939-08-23 00:00:00 NR 14.6996 134.363 main 1002 974 __________P___ -1 14.6996 134.363 2 7 287
1939232N11150 1939 53 WP MM NOT_NAMED 1939-08-23 03:00:00 NR 14.8102 134.084 main 974 957 __________P___ -1 14.8102 134.084 2 5 298
1939232N11150 1939 53 WP MM NOT_NAMED 1939-08-23 06:00:00 NR 14.9408 133.888 main 957 943 __________P___ -1 14.9408 133.888 2 5 308
1939232N11150 1939 53 WP MM NOT_NAMED 1939-08-23 09:00:00 NR 15.1000 133.700 main 943 917 __________O___ -1 15.1000 133.700 2 6 303
1939232N11150 1939 53 WP MM NOT_NAMED 1939-08-23 12:00:00 NR 15.2681 133.363 main 921 890 __________P___ -1 15.2681 133.363 2 7 299
1939232N11150 1939 53 WP MM NOT_NAMED 1939-08-23 15:00:00 NR 15.4679 133.025 main 890 870 __________P___ -1 15.4679 133.025 2 8 306
1939232N11150 1939 53 WP MM NOT_NAMED 1939-08-23 18:00:00 NR 15.7087 132.725 main 870 861 __________P___ -1 15.7087 132.725 2 7 316
1939232N11150 1939 53 WP MM NOT_NAMED 1939-08-23 21:00:00 NR 16.0000 132.500 main 866 862 __________O___ -1 16.0000 132.500 2 7 331
1939232N11150 1939 53 WP MM NOT_NAMED 1939-08-24 00:00:00 NR 16.3250 132.364 main 874 870 __________P___ -1 16.3250 132.364 2 7 345
1939232N11150 1939 53 WP MM NOT_NAMED 1939-08-24 03:00:00 NR 16.7022 132.308 main 888 888 __________P___ -1 16.7022 132.308 2 8 357
1939232N11150 1939 53 WP MM NOT_NAMED 1939-08-24 06:00:00 NR 17.1282 132.323 main 914 914 __________P___ -1 17.1282 132.323 2 9 6
1939232N11150 1939 53 WP MM NOT_NAMED 1939-08-24 09:00:00 NR 17.6000 132.400 main 951 951 __________O___ -1 17.6000 132.400 2 10 11
1939232N11150 1939 53 WP MM NOT_NAMED 1939-08-24 12:00:00 NR 18.1517 132.525 main 990 990 __________P___ -1 18.1517 132.525 2 12 14
1939232N11150 1939 53 WP MM NOT_NAMED 1939-08-24 15:00:00 NR 18.7377 132.704 main 1035 1035 __________P___ -1 18.7377 132.704 2 12 17
1939232N11150 1939 53 WP MM NOT_NAMED 1939-08-24 18:00:00 NR 19.3049 132.906 main 1088 1088 __________P___ -1 19.3049 132.906 2 11 19
1939232N11150 1939 53 WP MM NOT_NAMED 1939-08-24 21:00:00 NR 19.8000 133.100 main 1136 1136 __________O___ -1 19.8000 133.100 2 9 22
1939232N11150 1939 53 WP MM NOT_NAMED 1939-08-25 00:00:00 NR 20.1296 133.260 main 1170 1170 __________P___ -1 20.1296 133.260 2 7 26
1939232N11150 1939 53 WP MM NOT_NAMED 1939-08-25 03:00:00 NR 20.3874 133.403 main 1185 1185 __________P___ -1 20.3874 133.403 2 6 26
1939232N11150 1939 53 WP MM NOT_NAMED 1939-08-25 06:00:00 NR 20.6265 133.519 main 1194 1164 __________P___ -1 20.6265 133.519 2 5 20
1939232N11150 1939 53 WP MM NOT_NAMED 1939-08-25 09:00:00 NR 20.9000 133.600 main 1164 1121 __________O___ -1 20.9000 133.600 2 7 10
1939232N11150 1939 53 WP MM NOT_NAMED 1939-08-25 12:00:00 NR 21.2981 133.648 main 1121 1080 __________P___ -1 21.2981 133.648 2 8 4
1939232N11150 1939 53 WP MM NOT_NAMED 1939-08-25 15:00:00 NR 21.7349 133.660 main 1080 1024 __________P___ -1 21.7349 133.660 2 9 0
1939232N11150 1939 53 WP MM NOT_NAMED 1939-08-25 18:00:00 NR 22.1793 133.642 main 1024 981 __________P___ -1 22.1793 133.642 2 9 356
1939232N11150 1939 53 WP MM NOT_NAMED 1939-08-25 21:00:00 NR 22.6000 133.600 main 981 948 __________O___ -1 22.6000 133.600 2 8 357
1939232N11150 1939 53 WP MM NOT_NAMED 1939-08-26 00:00:00 NR 22.9411 133.602 main 948 916 __________P___ -1 22.9411 133.602 2 7 358
1939232N11150 1939 53 WP MM NOT_NAMED 1939-08-26 03:00:00 NR 23.2567 133.576 main 906 871 __________P___ -1 23.2567 133.576 2 6 350
1939232N11150 1939 53 WP MM NOT_NAMED 1939-08-26 06:00:00 NR 23.5690 133.486 main 871 833 __________P___ -1 23.5690 133.486 2 7 339
1939232N11150 1939 53 WP MM NOT_NAMED 1939-08-26 09:00:00 NR 23.9000 133.300 main 833 781 __________O___ -1 23.9000 133.300 2 9 327
1939232N11150 1939 53 WP MM NOT_NAMED 1939-08-26 12:00:00 NR 24.3159 132.957 main 781 725 __________P___ -1 24.3159 132.957 2 11 320
1939232N11150 1939 53 WP MM NOT_NAMED 1939-08-26 15:00:00 NR 24.7464 132.520 main 725 672 __________P___ -1 24.7464 132.520 2 12 315
1939232N11150 1939 53 WP MM NOT_NAMED 1939-08-26 18:00:00 NR 25.1535 132.048 main 659 620 __________P___ -1 25.1535 132.048 2 11 312
1939232N11150 1939 53 WP MM NOT_NAMED 1939-08-26 21:00:00 NR 25.5000 131.600 main 620 594 __________O___ -1 25.5000 131.600 2 9 310
1939232N11150 1939 53 WP MM NOT_NAMED 1939-08-27 00:00:00 NR 25.7178 131.310 main 594 570 __________P___ -1 25.7178 131.310 2 6 307
1939232N11150 1939 53 WP MM NOT_NAMED 1939-08-27 03:00:00 NR 25.8777 131.049 main 570 558 __________P___ -1 25.8777 131.049 2 6 302
1939232N11150 1939 53 WP MM NOT_NAMED 1939-08-27 06:00:00 NR 26.0238 130.763 main 558 536 __________P___ -1 26.0238 130.763 2 7 299
1939232N11150 1939 53 WP MM NOT_NAMED 1939-08-27 09:00:00 NR 26.2000 130.400 main 536 508 __________O___ -1 26.2000 130.400 2 10 299
1939232N11150 1939 53 WP MM NOT_NAMED 1939-08-27 12:00:00 NR 26.4903 129.840 main 509 488 __________P___ -1 26.4903 129.840 2 12 300
1939232N11150 1939 53 WP MM NOT_NAMED 1939-08-27 15:00:00 NR 26.8103 129.203 main 490 476 __________P___ -1 26.8103 129.203 2 13 299
1939232N11150 1939 53 WP MM NOT_NAMED 1939-08-27 18:00:00 NR 27.1248 128.565 main 480 470 __________P___ -1 27.1248 128.565 2 12 299
1939232N11150 1939 53 WP MM NOT_NAMED 1939-08-27 21:00:00 NR 27.4000 128.000 main 474 468 __________O___ -1 27.4000 128.000 2 9 299
1939232N11150 1939 53 WP MM NOT_NAMED 1939-08-28 00:00:00 NR 27.5706 127.648 main 474 469 __________P___ -1 27.5706 127.648 2 6 299
1939232N11150 1939 53 WP MM NOT_NAMED 1939-08-28 03:00:00 NR 27.7046 127.374 main 475 471 __________P___ -1 27.7046 127.374 2 5 299
1939232N11150 1939 53 WP MM NOT_NAMED 1939-08-28 06:00:00 NR 27.8364 127.113 main 483 474 __________P___ -1 27.8364 127.113 2 6 300
1939232N11150 1939 53 WP MM NOT_NAMED 1939-08-28 09:00:00 NR 28.0000 126.800 main 485 433 __________O___ -1 28.0000 126.800 2 8 299
1939232N11150 1939 53 WP MM NOT_NAMED 1939-08-28 12:00:00 NR 28.2367 126.284 main 433 368 __________P___ -1 28.2367 126.284 2 11 298
1939232N11150 1939 53 WP MM NOT_NAMED 1939-08-28 15:00:00 NR 28.5074 125.715 main 368 313 __________P___ -1 28.5074 125.715 2 11 300
1939232N11150 1939 53 WP MM NOT_NAMED 1939-08-28 18:00:00 NR 28.7992 125.163 main 313 262 __________P___ -1 28.7992 125.163 2 11 304
1939232N11150 1939 53 WP MM NOT_NAMED 1939-08-28 21:00:00 NR 29.1000 124.700 main 262 232 __________O___ -1 29.1000 124.700 2 9 312
1939232N11150 1939 53 WP MM NOT_NAMED 1939-08-29 00:00:00 NR 29.3752 124.427 main 233 225 __________P___ -1 29.3752 124.427 2 7 325
1939232N11150 1939 53 WP MM NOT_NAMED 1939-08-29 03:00:00 NR 29.6609 124.250 main 229 212 __________P___ -1 29.6609 124.250 2 6 336
1939232N11150 1939 53 WP MM NOT_NAMED 1939-08-29 06:00:00 NR 29.9662 124.124 main 212 206 __________P___ -1 29.9662 124.124 2 7 341
1939232N11150 1939 53 WP MM NOT_NAMED 1939-08-29 09:00:00 NR 30.3000 124.000 main 209 182 __________O___ -1 30.3000 124.000 2 8 339
1939232N11150 1939 53 WP MM NOT_NAMED 1939-08-29 12:00:00 NR 30.6835 123.799 main 182 162 __________P___ -1 30.6835 123.799 2 9 336
1939232N11150 1939 53 WP MM NOT_NAMED 1939-08-29 15:00:00 NR 31.0926 123.593 main 163 143 __________P___ -1 31.0926 123.593 2 9 337
1939232N11150 1939 53 WP MM NOT_NAMED 1939-08-29 18:00:00 NR 31.5054 123.390 main 143 123 __________P___ -1 31.5054 123.390 2 9 337
1939232N11150 1939 53 WP MM NOT_NAMED 1939-08-29 21:00:00 NR 31.9000 123.200 main 124 117 __________O___ -1 31.9000 123.200 2 7 340
1939232N11150 1939 53 WP MM NOT_NAMED 1939-08-30 00:00:00 NR 32.2011 123.085 main 126 123 __________P___ -1 32.2011 123.085 2 6 342
1939232N11150 1939 53 WP MM NOT_NAMED 1939-08-30 03:00:00 NR 32.4887 122.977 main 134 130 __________P___ -1 32.4887 122.977 2 6 340
1939232N11150 1939 53 WP MM NOT_NAMED 1939-08-30 06:00:00 NR 32.8070 122.831 main 136 136 __________P___ -1 32.8070 122.831 2 8 336
1939232N11150 1939 53 WP MM NOT_NAMED 1939-08-30 09:00:00 NR 33.2000 122.600 main 143 143 __________O___ -1 33.2000 122.600 2 11 331
1939232N11150 1939 53 WP MM NOT_NAMED 1939-08-30 12:00:00 NR 33.7752 122.191 main 151 128 __________P___ -1 33.7752 122.191 2 14 328
1939232N11150 1939 53 WP MM NOT_NAMED 1939-08-30 15:00:00 NR 34.4172 121.695 main 128 107 __________P___ -1 34.4172 121.695 2 15 327
1939232N11150 1939 53 WP MM NOT_NAMED 1939-08-30 18:00:00 NR 35.0504 121.176 main 120 55 __________P___ -1 35.0504 121.176 2 14 325
1939232N11150 1939 53 WP MM NOT_NAMED 1939-08-30 21:00:00 NR 35.6000 120.700 main 55 8 __________O___ -1 35.6000 120.700 2 12 324
1939232N11150 1939 53 WP MM NOT_NAMED 1939-08-31 00:00:00 NR 35.9837 120.348 main 0 0 __________P___ -1 35.9837 120.348 2 9 322
1939232N11150 1939 53 WP MM NOT_NAMED 1939-08-31 03:00:00 NR 36.2764 120.056 main 0 0 __________P___ -1 36.2764 120.056 2 7 320
1939232N11150 1939 53 WP MM NOT_NAMED 1939-08-31 06:00:00 NR 36.5059 119.812 main 0 0 __________P___ -1 36.5059 119.812 2 6 319
1939232N11150 1939 53 WP MM NOT_NAMED 1939-08-31 09:00:00 NR 36.7000 119.600 main 0 0 __________O___ -1 36.7000 119.600 2 6 322
1939232N11150 1939 53 WP MM NOT_NAMED 1939-08-31 12:00:00 NR 36.9401 119.384 main 0 0 __________P___ -1 36.9401 119.384 2 6 324
1939232N11150 1939 53 WP MM NOT_NAMED 1939-08-31 15:00:00 NR 37.1472 119.197 main 0 0 __________P___ -1 37.1472 119.197 2 5 323
1939232N11150 1939 53 WP MM NOT_NAMED 1939-08-31 18:00:00 NR 37.3058 119.037 main 0 0 __________P___ -1 37.3058 119.037 2 3 317
1939232N11150 1939 53 WP MM NOT_NAMED 1939-08-31 21:00:00 NR 37.4000 118.900 main 0 0 __________O___ -1 37.4000 118.900 2 3 289
1939232N11150 1939 53 WP MM NOT_NAMED 1939-09-01 00:00:00 NR 37.3980 118.692 main 0 0 __________P___ -1 37.3980 118.692 2 3 258
1939232N11150 1939 53 WP MM NOT_NAMED 1939-09-01 03:00:00 NR 37.3366 118.519 main 0 0 __________P___ -1 37.3366 118.519 2 2 235
1939232N11150 1939 53 WP MM NOT_NAMED 1939-09-01 06:00:00 NR 37.2569 118.437 main 0 0 __________P___ -1 37.2569 118.437 2 1 185
1939232N11150 1939 53 WP MM NOT_NAMED 1939-09-01 09:00:00 NR 37.2000 118.500 main 0 0 __________O___ -1 37.2000 118.500 2 3 97
1939232N11150 1939 53 WP MM NOT_NAMED 1939-09-01 12:00:00 NR 37.2191 118.830 main 0 0 __________P___ -1 37.2191 118.830 2 6 84
1939232N11150 1939 53 WP MM NOT_NAMED 1939-09-01 15:00:00 NR 37.2655 119.297 main 20 8 __________P___ -1 37.2655 119.297 2 8 82
1939232N11150 1939 53 WP MM NOT_NAMED 1939-09-01 18:00:00 NR 37.3287 119.790 main 8 0 __________P___ -1 37.3287 119.790 2 7 79
1939232N11150 1939 53 WP MM NOT_NAMED 1939-09-01 21:00:00 NR 37.4000 120.200 main 0 0 __________O___ -1 37.4000 120.200 2 5 76
1939232N11150 1939 53 WP MM NOT_NAMED 1939-09-02 00:00:00 NR 37.4506 120.404 main 0 0 __________P___ -1 37.4506 120.404 2 3 65
1939232N11150 1939 53 WP MM NOT_NAMED 1939-09-02 03:00:00 NR 37.5114 120.507 main 0 0 __________P___ -1 37.5114 120.507 2 2 37
1939232N11150 1939 53 WP MM NOT_NAMED 1939-09-02 06:00:00 NR 37.5915 120.532 main 0 0 __________P___ -1 37.5915 120.532 2 2 354
1939232N11150 1939 53 WP MM NOT_NAMED 1939-09-02 09:00:00 NR 37.7000 120.500 main 0 0 __________O___ -1 37.7000 120.500 2 3 358
1939232N11150 1939 53 WP MM NOT_NAMED 1939-09-02 12:00:00 NR 37.8538 120.499 main 22 22 __________P___ -1 37.8538 120.499 2 3 354
1939232N11150 1939 53 WP MM NOT_NAMED 1939-09-02 15:00:00 NR 38.0341 120.442 main 33 33 __________P___ -1 38.0341 120.442 2 4 339
1939232N11150 1939 53 WP MM NOT_NAMED 1939-09-02 18:00:00 NR 38.2223 120.314 main 55 55 __________P___ -1 38.2223 120.314 2 5 324
1939232N11150 1939 53 WP MM NOT_NAMED 1939-09-02 21:00:00 NR 38.4000 120.100 main 78 78 __________O___ -1 38.4000 120.100 2 6 301
1939232N11150 1939 53 WP MM NOT_NAMED 1939-09-03 00:00:00 NR 38.5492 119.626 main 82 51 __________P___ -1 38.5492 119.626 2 8 290
1939232N11150 1939 53 WP MM NOT_NAMED 1939-09-03 03:00:00 NR 38.6817 119.093 main 51 33 __________P___ -1 38.6817 119.093 2 8 288
1939232N11150 1939 53 WP MM NOT_NAMED 1939-09-03 06:00:00 NR 38.7978 118.663 main 34 20 __________P___ -1 38.7978 118.663 2 5 295
1939232N11150 1939 53 WP MM NOT_NAMED 1939-09-03 09:00:00 NR 38.9000 118.500 main 20 14 __________O___ -1 38.9000 118.500 2 2 13
1939232N11150 1939 53 WP MM NOT_NAMED 1939-09-03 12:00:00 NR 38.9908 118.722 main 14 11 __________P___ -1 38.9908 118.722 2 6 74
1939232N11150 1939 53 WP MM NOT_NAMED 1939-09-03 15:00:00 NR 39.0711 119.267 main 28 28 __________P___ -1 39.0711 119.267 2 10 82
1939232N11150 1939 53 WP MM NOT_NAMED 1939-09-03 18:00:00 NR 39.1405 120.029 main 68 37 __________P___ -1 39.1405 120.029 2 13 84
1939232N11150 1939 53 WP MM NOT_NAMED 1939-09-03 21:00:00 NR 39.2000 120.900 main 37 __________O___ -1 39.2000 120.900 2 14 85

デジタル台風データ・検索

IBTrACS Databaseについて

本データベースは、米国NOAAが公開する1842年以降の世界の熱帯低気圧のベストトラックデータアーカイブInternational Best Track Archive for Climate Stewardship (IBTrACS)を、ウェブで閲覧しやすい形式に変換したものです。

最終更新日:2021-11-26